Time;durP1;ratioP1;P1;durP2;ratioP2;P2;SDS_P1;SDS_P2;PMS_P1;PMS_P2;Temp;Humidity;BMP_temperature;BMP_pressure;BME280_temperature;BME280_humidity;BME280_pressure;Samples;Min_cycle;Max_cycle;Signal;HPM_P1;HPM_P2
2024/02/19 00:01:58;;;;;;;32.40;14.70;;;;;;;5.08;79.02;101232.66;110931;1210;138854;-70
2024/02/19 00:04:24;;;;;;;28.20;13.70;;;;;;;5.09;78.96;101230.88;111121;1206;99005;-71
2024/02/19 00:06:49;;;;;;;29.10;14.10;;;;;;;5.10;78.88;101220.06;110908;1212;139075;-70
2024/02/19 00:09:14;;;;;;;32.80;15.00;;;;;;;5.12;79.07;101218.80;111130;1206;99019;-70
2024/02/19 00:11:41;;;;;;;32.10;14.00;;;;;;;5.12;78.99;101212.42;111139;1211;99004;-71
2024/02/19 00:14:07;;;;;;;28.10;13.60;;;;;;;5.12;78.87;101208.89;111022;1212;139468;-71
2024/02/19 00:16:32;;;;;;;27.90;14.00;;;;;;;5.11;78.94;101204.11;111153;1206;99032;-70
2024/02/19 00:18:57;;;;;;;31.40;13.90;;;;;;;5.12;78.92;101204.98;110903;1206;139184;-70
2024/02/19 00:21:22;;;;;;;31.20;14.60;;;;;;;5.13;79.05;101201.77;111077;1211;98957;-70
2024/02/19 00:23:47;;;;;;;28.20;14.30;;;;;;;5.14;79.13;101199.11;111129;1206;98934;-71
2024/02/19 00:26:15;;;;;;;27.60;13.70;;;;;;;5.15;79.01;101196.97;110948;1210;139954;-71
2024/02/19 00:28:41;;;;;;;35.80;14.10;;;;;;;5.16;79.11;101183.67;111062;1210;98902;-70
2024/02/19 00:31:10;;;;;;;33.70;15.30;;;;;;;5.17;79.22;101178.88;111016;1209;139187;-71
2024/02/19 00:33:35;;;;;;;33.10;15.50;;;;;;;5.17;79.12;101171.78;111100;1210;98962;-70
2024/02/19 00:36:01;;;;;;;31.90;15.90;;;;;;;5.18;79.28;101168.94;111034;1207;98839;-71
2024/02/19 00:38:27;;;;;;;30.60;13.70;;;;;;;5.19;79.24;101166.10;111074;1210;139165;-71
2024/02/19 00:40:52;;;;;;;29.90;15.40;;;;;;;5.18;79.12;101157.59;111078;1206;100534;-71
2024/02/19 00:43:17;;;;;;;25.90;14.50;;;;;;;5.19;79.14;101147.50;111016;1212;139406;-70
2024/02/19 00:45:43;;;;;;;34.40;16.20;;;;;;;5.18;79.22;101145.20;111065;1210;99505;-70
2024/02/19 00:48:08;;;;;;;30.00;14.70;;;;;;;5.20;79.26;101139.52;111075;1207;98993;-71
2024/02/19 00:50:33;;;;;;;31.20;15.80;;;;;;;5.20;79.16;101134.91;111034;1211;139222;-70
2024/02/19 00:52:59;;;;;;;28.60;14.80;;;;;;;5.20;79.36;101125.31;110923;1211;99092;-70
2024/02/19 00:55:24;;;;;;;31.50;14.90;;;;;;;5.21;79.32;101119.80;111044;1206;139677;-71
2024/02/19 00:57:49;;;;;;;34.70;15.20;;;;;;;5.21;79.29;101111.65;110961;1205;98970;-71
2024/02/19 01:00:16;;;;;;;32.00;14.20;;;;;;;5.24;79.41;101109.13;111109;1206;98350;-71
2024/02/19 01:02:41;;;;;;;26.10;14.10;;;;;;;5.26;79.38;101106.63;110865;1209;139124;-71
2024/02/19 01:05:07;;;;;;;33.70;15.30;;;;;;;5.27;79.43;101103.05;111123;1210;99022;-70
2024/02/19 01:07:33;;;;;;;33.10;15.60;;;;;;;5.28;79.39;101097.73;111138;1206;138931;-70
2024/02/19 01:09:58;;;;;;;30.20;14.10;;;;;;;5.28;79.42;101094.55;111082;1205;99021;-71
2024/02/19 01:12:24;;;;;;;27.10;15.80;;;;;;;5.29;79.53;101087.09;111114;1210;98938;-70
2024/02/19 01:14:49;;;;;;;32.40;14.70;;;;;;;5.29;79.46;101084.08;111041;1211;138841;-71
2024/02/19 01:17:15;;;;;;;30.80;14.50;;;;;;;5.29;79.45;101076.09;111059;1210;99060;-70
2024/02/19 01:19:40;;;;;;;26.80;14.00;;;;;;;5.31;79.61;101068.98;111009;1207;138881;-71
2024/02/19 01:22:05;;;;;;;31.30;14.40;;;;;;;5.31;79.52;101071.46;111109;1210;99021;-71
2024/02/19 01:24:31;;;;;;;30.40;14.70;;;;;;;5.32;79.38;101062.59;111114;1209;101571;-70
2024/02/19 01:26:57;;;;;;;28.50;14.90;;;;;;;5.33;79.43;101060.98;111001;1210;139265;-71
2024/02/19 01:29:24;;;;;;;33.90;16.30;;;;;;;5.35;79.63;101052.27;111129;1211;98939;-70
2024/02/19 01:31:50;;;;;;;34.70;15.10;;;;;;;5.36;79.66;101045.86;110968;1210;139008;-71
2024/02/19 01:34:16;;;;;;;36.10;16.70;;;;;;;5.37;79.62;101044.62;111272;1210;99147;-71
2024/02/19 01:36:41;;;;;;;33.60;14.50;;;;;;;5.37;79.60;101039.13;111002;1212;99076;-71
2024/02/19 01:39:07;;;;;;;32.40;15.30;;;;;;;5.38;79.52;101035.91;111005;1210;139125;-70
2024/02/19 01:41:33;;;;;;;33.10;15.30;;;;;;;5.38;79.70;101030.42;111088;1206;99568;-71
2024/02/19 01:43:58;;;;;;;30.20;15.20;;;;;;;5.38;79.66;101027.23;110899;1212;139837;-70
2024/02/19 01:46:24;;;;;;;29.90;15.30;;;;;;;5.40;79.71;101016.58;111027;1210;98920;-70
2024/02/19 01:48:49;;;;;;;31.50;16.50;;;;;;;5.42;79.61;101019.73;111039;1207;139740;-70
2024/02/19 01:51:16;;;;;;;28.00;14.70;;;;;;;5.42;79.74;101014.23;111295;1209;100208;-70
2024/02/19 01:53:43;;;;;;;33.90;15.60;;;;;;;5.42;79.55;101006.96;111112;1211;99027;-70
2024/02/19 01:56:09;;;;;;;29.20;15.00;;;;;;;5.42;79.75;101007.67;111134;1209;139273;-71
2024/02/19 01:58:36;;;;;;;28.20;15.30;;;;;;;5.43;79.65;101007.30;111163;1206;99027;-71
2024/02/19 02:01:04;;;;;;;32.10;15.00;;;;;;;5.44;79.75;101007.10;110789;1210;139369;-70
2024/02/19 02:03:30;;;;;;;27.80;14.20;;;;;;;5.45;79.68;101013.13;110758;1206;99030;-70
2024/02/19 02:05:55;;;;;;;29.20;14.60;;;;;;;5.46;79.75;101009.02;110778;1209;99146;-70
2024/02/19 02:08:21;;;;;;;31.30;14.90;;;;;;;5.47;79.71;101000.84;110831;1206;141284;-71
2024/02/19 02:10:46;;;;;;;27.90;14.80;;;;;;;5.48;79.89;100993.93;110793;1206;98936;-70
2024/02/19 02:13:11;;;;;;;33.50;15.80;;;;;;;5.47;79.79;100997.84;110748;1212;140338;-71
2024/02/19 02:15:37;;;;;;;34.10;15.80;;;;;;;5.47;79.74;100995.17;110807;1206;98927;-70
2024/02/19 02:18:02;;;;;;;35.20;16.60;;;;;;;5.47;79.67;100992.35;110851;1211;99006;-70
2024/02/19 02:20:27;;;;;;;30.20;15.40;;;;;;;5.47;79.76;100986.66;111162;1207;139738;-72
2024/02/19 02:22:54;;;;;;;36.70;15.10;;;;;;;5.47;79.80;100986.85;111088;1209;98991;-71
2024/02/19 02:25:21;;;;;;;31.50;14.80;;;;;;;5.47;79.79;100984.36;110977;1210;139189;-70
2024/02/19 02:27:46;;;;;;;29.70;15.30;;;;;;;5.47;79.86;100984.54;111087;1210;100005;-70
2024/02/19 02:30:12;;;;;;;29.90;16.00;;;;;;;5.49;79.90;100979.55;111134;1209;98964;-70
2024/02/19 02:32:38;;;;;;;30.70;15.90;;;;;;;5.47;79.88;100978.86;111048;1210;139103;-71
2024/02/19 02:35:04;;;;;;;33.00;16.40;;;;;;;5.48;79.86;100973.00;111035;1205;99004;-71
2024/02/19 02:37:30;;;;;;;28.30;14.70;;;;;;;5.49;79.87;100964.30;111075;1210;139260;-71
2024/02/19 02:39:56;;;;;;;36.20;16.10;;;;;;;5.50;79.88;100958.08;111052;1206;107957;-71
2024/02/19 02:42:21;;;;;;;34.40;15.30;;;;;;;5.51;80.08;100955.59;111229;1206;98971;-71
2024/02/19 02:44:47;;;;;;;33.40;16.10;;;;;;;5.50;79.99;100951.16;111004;1206;139070;-71
2024/02/19 02:47:12;;;;;;;32.30;15.70;;;;;;;5.51;79.97;100948.68;111071;1210;98958;-71
2024/02/19 02:49:37;;;;;;;31.50;14.90;;;;;;;5.51;80.10;100941.76;110933;1210;138905;-71
2024/02/19 02:52:03;;;;;;;33.70;15.50;;;;;;;5.51;80.08;100943.88;111059;1210;99631;-71
2024/02/19 02:54:28;;;;;;;30.30;15.80;;;;;;;5.52;80.10;100939.79;111111;1206;99024;-71
2024/02/19 02:56:53;;;;;;;28.80;15.10;;;;;;;5.53;80.18;100935.52;110991;1210;139688;-71
2024/02/19 02:59:18;;;;;;;31.80;14.70;;;;;;;5.54;80.29;100930.73;111087;1211;99000;-71
2024/02/19 03:01:45;;;;;;;28.30;15.50;;;;;;;5.54;80.21;100923.64;111011;1206;138892;-71
2024/02/19 03:04:11;;;;;;;29.40;14.10;;;;;;;5.54;80.26;100922.75;111085;1209;100053;-71
2024/02/19 03:06:36;;;;;;;29.60;15.10;;;;;;;5.54;80.37;100917.08;110814;1205;102893;-70
2024/02/19 03:09:01;;;;;;;31.90;14.80;;;;;;;5.55;80.52;100913.51;110709;1206;140008;-71
2024/02/19 03:11:26;;;;;;;28.00;14.60;;;;;;;5.56;80.50;100909.77;111080;1206;99040;-71
2024/02/19 03:13:52;;;;;;;30.20;14.60;;;;;;;5.55;80.47;100903.23;111000;1208;138703;-71
2024/02/19 03:16:18;;;;;;;28.00;15.00;;;;;;;5.55;80.63;100895.24;111080;1206;99073;-71
2024/02/19 03:18:43;;;;;;;32.20;14.50;;;;;;;5.55;80.81;100893.83;111042;1211;98939;-71
2024/02/19 03:21:15;;;;;;;31.30;16.00;;;;;;;5.54;80.58;100891.90;111024;1209;138883;-71
2024/02/19 03:23:47;;;;;;;28.50;15.30;;;;;;;5.53;80.73;100888.38;111063;1208;108402;-71
2024/02/19 03:26:13;;;;;;;33.10;14.70;;;;;;;5.52;80.82;100886.79;110978;1212;139299;-71
2024/02/19 03:28:38;;;;;;;31.80;16.10;;;;;;;5.52;80.89;100887.49;111115;1211;99120;-71
2024/02/19 03:31:03;;;;;;;32.90;14.90;;;;;;;5.50;80.93;100884.88;110977;1210;138995;-70
2024/02/19 03:33:28;;;;;;;29.00;15.00;;;;;;;5.51;81.20;100880.08;111029;1208;98975;-71
2024/02/19 03:35:54;;;;;;;28.80;14.30;;;;;;;5.51;81.09;100878.48;111148;1210;98997;-71
2024/02/19 03:38:19;;;;;;;28.10;14.70;;;;;;;5.51;81.25;100866.44;110950;1208;138949;-71
2024/02/19 03:40:44;;;;;;;29.90;15.40;;;;;;;5.50;81.17;100867.34;111055;1210;99356;-71
2024/02/19 03:43:10;;;;;;;32.10;15.30;;;;;;;5.49;81.35;100858.85;110920;1206;140082;-73
2024/02/19 03:45:35;;;;;;;34.60;15.20;;;;;;;5.48;81.35;100856.21;111079;1210;98949;-71
2024/02/19 03:48:00;;;;;;;26.10;13.20;;;;;;;5.47;81.53;100853.39;111135;1210;98997;-71
2024/02/19 03:50:25;;;;;;;32.10;14.80;;;;;;;5.47;81.58;100849.50;110927;1210;138965;-71
2024/02/19 03:52:51;;;;;;;28.10;14.40;;;;;;;5.47;81.72;100846.12;111091;1206;98946;-71
2024/02/19 03:55:16;;;;;;;35.40;15.80;;;;;;;5.46;81.72;100837.64;110889;1211;139188;-71
2024/02/19 03:57:41;;;;;;;30.50;14.00;;;;;;;5.48;81.64;100840.96;111014;1210;98951;-71
2024/02/19 04:00:07;;;;;;;35.60;15.00;;;;;;;5.48;82.03;100830.50;111038;1207;98935;-70
2024/02/19 04:02:33;;;;;;;28.20;14.70;;;;;;;5.49;81.86;100824.98;111132;1206;138931;-70
2024/02/19 04:04:58;;;;;;;28.20;15.00;;;;;;;5.49;82.17;100820.39;111084;1211;98958;-70
2024/02/19 04:07:24;;;;;;;29.90;15.80;;;;;;;5.49;82.04;100815.77;110885;1210;139368;-69
2024/02/19 04:09:49;;;;;;;28.70;15.00;;;;;;;5.50;82.17;100816.11;110949;1210;98987;-70
2024/02/19 04:12:14;;;;;;;29.80;14.20;;;;;;;5.51;82.26;100808.82;111126;1208;98932;-70
2024/02/19 04:14:43;;;;;;;29.40;14.90;;;;;;;5.53;82.37;100811.09;110809;1210;139264;-70
2024/02/19 04:17:08;;;;;;;26.00;13.80;;;;;;;5.54;82.39;100807.71;111038;1207;98987;-70
2024/02/19 04:19:33;;;;;;;34.80;15.90;;;;;;;5.55;82.53;100809.45;111021;1206;139002;-70
2024/02/19 04:21:59;;;;;;;33.20;15.60;;;;;;;5.61;82.64;100807.05;111094;1219;98930;-70
2024/02/19 04:24:25;;;;;;;30.30;15.90;;;;;;;5.59;82.65;100801.94;111048;1210;98978;-70
2024/02/19 04:26:50;;;;;;;23.00;12.90;;;;;;;5.57;82.69;100795.08;110937;1209;139092;-70
2024/02/19 04:29:15;;;;;;;27.70;14.30;;;;;;;5.58;82.70;100794.86;111151;1208;98990;-70
2024/02/19 04:31:41;;;;;;;31.90;15.20;;;;;;;5.59;83.02;100793.61;110860;1210;139323;-70
2024/02/19 04:34:07;;;;;;;29.00;14.70;;;;;;;5.58;82.94;100784.76;111089;1206;99540;-70
2024/02/19 04:36:32;;;;;;;32.90;15.00;;;;;;;5.61;83.17;100779.04;111128;1210;97847;-70
2024/02/19 04:38:57;;;;;;;27.90;15.40;;;;;;;5.61;83.12;100776.36;110952;1212;139776;-70
2024/02/19 04:41:23;;;;;;;32.20;14.70;;;;;;;5.62;83.27;100773.52;111132;1209;99127;-70
2024/02/19 04:43:48;;;;;;;29.20;15.70;;;;;;;5.60;83.16;100775.32;110895;1210;139493;-70
2024/02/19 04:46:13;;;;;;;30.30;15.30;;;;;;;5.60;83.38;100772.50;111138;1210;99119;-70
2024/02/19 04:48:39;;;;;;;29.40;16.30;;;;;;;5.61;83.54;100766.42;111043;1206;99044;-70
2024/02/19 04:51:05;;;;;;;28.50;14.00;;;;;;;5.62;83.60;100762.17;110972;1210;138833;-70
2024/02/19 04:53:31;;;;;;;26.40;15.30;;;;;;;5.61;83.63;100755.81;111075;1211;98956;-70
2024/02/19 04:55:56;;;;;;;28.50;15.80;;;;;;;5.62;83.72;100756.48;110958;1209;139041;-70
2024/02/19 04:58:22;;;;;;;32.20;15.30;;;;;;;5.64;83.83;100752.56;110971;1212;99138;-70
2024/02/19 05:00:47;;;;;;;30.00;14.50;;;;;;;5.62;83.76;100748.69;110983;1210;98960;-70
2024/02/19 05:03:13;;;;;;;27.30;13.90;;;;;;;5.64;83.97;100744.93;110900;1210;139395;-70
2024/02/19 05:05:38;;;;;;;28.90;15.10;;;;;;;5.64;83.96;100738.38;111264;1209;99022;-70
2024/02/19 05:08:04;;;;;;;26.50;14.80;;;;;;;5.64;84.10;100736.42;110880;1210;139338;-71
2024/02/19 05:10:30;;;;;;;27.50;14.70;;;;;;;5.67;84.24;100732.80;111008;1206;99099;-70
2024/02/19 05:12:55;;;;;;;28.80;14.80;;;;;;;5.67;84.28;100729.26;110992;1209;139902;-69
2024/02/19 05:15:20;;;;;;;34.30;15.60;;;;;;;5.66;84.44;100725.20;111004;1211;100379;-70
2024/02/19 05:17:46;;;;;;;29.40;15.20;;;;;;;5.69;84.47;100725.68;111121;1210;99020;-71
2024/02/19 05:20:11;;;;;;;26.80;15.10;;;;;;;5.71;84.57;100721.55;110928;1211;139761;-71
2024/02/19 05:22:37;;;;;;;32.50;16.50;;;;;;;5.72;84.67;100716.91;111088;1206;99138;-71
2024/02/19 05:25:02;;;;;;;28.60;15.00;;;;;;;5.70;84.59;100712.89;110968;1211;139190;-71
2024/02/19 05:27:29;;;;;;;29.90;15.00;;;;;;;5.70;84.88;100712.52;110990;1207;99239;-71
2024/02/19 05:29:54;;;;;;;26.60;14.50;;;;;;;5.71;84.88;100710.92;111001;1208;98956;-71
2024/02/19 05:32:20;;;;;;;31.30;15.80;;;;;;;5.70;85.00;100709.34;111028;1206;139662;-71
2024/02/19 05:34:45;;;;;;;26.00;14.70;;;;;;;5.71;85.05;100703.98;111045;1210;99054;-71
2024/02/19 05:37:10;;;;;;;33.60;15.80;;;;;;;5.72;85.16;100702.56;110956;1211;138842;-71
2024/02/19 05:39:36;;;;;;;23.60;13.60;;;;;;;5.73;85.25;100701.83;111033;1209;99482;-71
2024/02/19 05:42:01;;;;;;;26.90;15.00;;;;;;;5.74;85.30;100700.21;111000;1211;98981;-71
2024/02/19 05:44:26;;;;;;;32.20;16.70;;;;;;;5.76;85.33;100694.30;110969;1212;138843;-71
2024/02/19 05:46:52;;;;;;;28.30;14.40;;;;;;;5.79;85.60;100693.88;110966;1206;99904;-71
2024/02/19 05:49:18;;;;;;;26.50;14.00;;;;;;;5.81;85.65;100690.30;110982;1211;138977;-71
2024/02/19 05:51:44;;;;;;;27.90;14.20;;;;;;;5.83;85.77;100690.77;111018;1208;100042;-71
2024/02/19 05:54:11;;;;;;;27.60;14.90;;;;;;;5.84;85.75;100685.79;111020;1208;98970;-71
2024/02/19 05:56:36;;;;;;;23.10;13.80;;;;;;;5.84;85.73;100682.94;110932;1219;139854;-71
2024/02/19 05:59:01;;;;;;;25.10;13.10;;;;;;;5.86;85.90;100683.78;111053;1206;98999;-71
2024/02/19 06:01:27;;;;;;;22.00;12.00;;;;;;;5.88;85.89;100678.43;110845;1210;139013;-71
2024/02/19 06:03:53;;;;;;;24.10;13.90;;;;;;;5.89;86.09;100677.02;110947;1212;99063;-72
2024/02/19 06:06:18;;;;;;;22.90;13.30;;;;;;;5.89;86.13;100669.38;111028;1211;99198;-71
2024/02/19 06:08:44;;;;;;;24.60;13.10;;;;;;;5.92;86.22;100667.21;110894;1209;138769;-71
2024/02/19 06:11:09;;;;;;;21.00;12.60;;;;;;;5.93;86.31;100665.75;111064;1206;99901;-71
2024/02/19 06:13:35;;;;;;;21.80;12.90;;;;;;;5.94;86.34;100665.36;110869;1208;139811;-71
2024/02/19 06:16:01;;;;;;;27.10;12.80;;;;;;;5.96;86.43;100661.42;110960;1211;99247;-70
2024/02/19 06:18:27;;;;;;;22.50;12.70;;;;;;;5.97;86.48;100660.88;110796;1206;103471;-71
2024/02/19 06:20:52;;;;;;;26.60;13.90;;;;;;;5.97;86.65;100658.71;110588;1208;139999;-71
2024/02/19 06:23:17;;;;;;;23.40;13.00;;;;;;;5.99;86.74;100656.55;110802;1208;99105;-72
2024/02/19 06:25:43;;;;;;;21.10;12.10;;;;;;;6.00;86.90;100653.34;110580;1208;139002;-71
2024/02/19 06:28:08;;;;;;;24.40;13.50;;;;;;;6.02;86.85;100651.16;110953;1210;100552;-71
2024/02/19 06:30:35;;;;;;;23.50;12.20;;;;;;;6.04;87.06;100647.55;110807;1208;98939;-71
2024/02/19 06:33:01;;;;;;;21.70;12.00;;;;;;;6.07;87.00;100642.70;110918;1210;139715;-71
2024/02/19 06:35:27;;;;;;;21.10;11.80;;;;;;;6.09;87.15;100644.07;111051;1208;98956;-71
2024/02/19 06:37:53;;;;;;;26.10;14.40;;;;;;;6.11;87.22;100639.75;110964;1210;139125;-71
2024/02/19 06:40:18;;;;;;;22.10;13.60;;;;;;;6.13;87.24;100627.30;111164;1211;99030;-71
2024/02/19 06:42:43;;;;;;;25.90;13.30;;;;;;;6.15;87.32;100629.36;110993;1206;99851;-71
2024/02/19 06:45:09;;;;;;;31.60;12.70;;;;;;;6.17;87.46;100627.73;111025;1208;140007;-71
2024/02/19 06:47:35;;;;;;;33.50;13.20;;;;;;;6.19;87.53;100625.36;111092;1207;98922;-71
2024/02/19 06:50:00;;;;;;;24.10;13.80;;;;;;;6.21;87.69;100624.26;110898;1206;139688;-71
2024/02/19 06:52:25;;;;;;;22.10;12.90;;;;;;;6.23;87.83;100624.38;111024;1209;112545;-71
2024/02/19 06:54:51;;;;;;;24.80;13.60;;;;;;;6.26;87.77;100621.81;111032;1211;99127;-71
2024/02/19 06:57:16;;;;;;;30.30;15.20;;;;;;;6.27;87.84;100621.79;111072;1210;138586;-71
2024/02/19 06:59:41;;;;;;;27.20;13.70;;;;;;;6.30;87.96;100621.36;111005;1210;99071;-70
2024/02/19 07:02:07;;;;;;;18.80;11.70;;;;;;;6.32;87.98;100621.85;110964;1206;139369;-71
2024/02/19 07:04:35;;;;;;;24.00;13.90;;;;;;;6.35;88.10;100621.05;111126;1208;107779;-71
2024/02/19 07:07:00;;;;;;;27.80;14.50;;;;;;;6.36;88.17;100620.82;110876;1210;139603;-70
2024/02/19 07:09:26;;;;;;;20.80;12.20;;;;;;;6.38;88.28;100619.00;111062;1211;99829;-72
2024/02/19 07:11:51;;;;;;;23.30;13.60;;;;;;;6.41;88.29;100618.75;111024;1208;99069;-72
2024/02/19 07:14:17;;;;;;;23.30;12.90;;;;;;;6.42;88.39;100621.39;110899;1209;139881;-72
2024/02/19 07:16:42;;;;;;;27.90;14.70;;;;;;;6.43;88.45;100622.59;110998;1212;99029;-71
2024/02/19 07:19:08;;;;;;;23.00;14.20;;;;;;;6.47;88.61;100618.06;110854;1209;139324;-71
2024/02/19 07:21:34;;;;;;;27.50;16.00;;;;;;;6.49;88.62;100621.89;110757;1215;103148;-71
2024/02/19 07:23:59;;;;;;;32.60;17.80;;;;;;;6.51;88.75;100620.42;110731;1211;104031;-71
2024/02/19 07:26:25;;;;;;;28.00;16.30;;;;;;;6.53;88.78;100614.35;110822;1210;139733;-72
2024/02/19 07:28:51;;;;;;;32.70;17.60;;;;;;;6.54;88.82;100613.09;110986;1208;99507;-71
2024/02/19 07:31:17;;;;;;;30.40;18.30;;;;;;;6.57;88.93;100608.74;111028;1212;140208;-72
2024/02/19 07:33:42;;;;;;;34.50;19.90;;;;;;;6.59;89.08;100601.57;110996;1207;99205;-71
2024/02/19 07:36:08;;;;;;;30.60;17.50;;;;;;;6.64;89.16;100602.84;111044;1210;98738;-72
2024/02/19 07:38:33;;;;;;;32.10;19.10;;;;;;;6.67;89.25;100600.29;111099;1206;139005;-71
2024/02/19 07:40:58;;;;;;;28.10;16.40;;;;;;;6.68;89.34;100595.09;110949;1210;99006;-71
2024/02/19 07:43:23;;;;;;;32.00;17.70;;;;;;;6.69;89.40;100590.98;110998;1210;139180;-71
2024/02/19 07:45:49;;;;;;;32.00;16.40;;;;;;;6.70;89.33;100592.38;110978;1206;99023;-71
2024/02/19 07:48:14;;;;;;;28.60;16.40;;;;;;;6.72;89.47;100588.77;111011;1211;99023;-71
2024/02/19 07:50:41;;;;;;;26.00;16.20;;;;;;;6.76;89.56;100584.21;110918;1210;138935;-71
2024/02/19 07:53:06;;;;;;;32.20;16.60;;;;;;;6.79;89.70;100583.23;111049;1210;98962;-71
2024/02/19 07:55:32;;;;;;;33.90;17.50;;;;;;;6.81;89.68;100579.80;110925;1210;139639;-71
2024/02/19 07:57:57;;;;;;;28.00;15.20;;;;;;;6.83;89.76;100580.80;111132;1208;99015;-71
2024/02/19 08:00:22;;;;;;;34.10;17.00;;;;;;;6.85;89.92;100580.60;111012;1208;98946;-71
2024/02/19 08:02:48;;;;;;;25.50;14.90;;;;;;;6.88;89.88;100578.20;111032;1219;139591;-72
2024/02/19 08:05:13;;;;;;;40.80;15.00;;;;;;;6.90;89.92;100579.04;111028;1206;97756;-71
2024/02/19 08:07:38;;;;;;;24.30;14.30;;;;;;;6.91;90.08;100569.73;110954;1218;139499;-71
2024/02/19 08:10:04;;;;;;;24.70;13.20;;;;;;;6.95;90.08;100571.05;111062;1210;100438;-71
2024/02/19 08:12:33;;;;;;;22.10;12.60;;;;;;;6.98;90.18;100570.63;111078;1210;98956;-71
2024/02/19 08:14:58;;;;;;;24.20;12.70;;;;;;;7.01;90.21;100564.48;110976;1208;140113;-71
2024/02/19 08:17:23;;;;;;;31.80;13.90;;;;;;;7.02;90.24;100563.91;110974;1211;98984;-71
2024/02/19 08:19:49;;;;;;;28.30;12.90;;;;;;;7.04;90.28;100564.39;110944;1207;139083;-71
2024/02/19 08:22:14;;;;;;;22.80;13.20;;;;;;;7.07;90.41;100559.16;110979;1209;99049;-71
2024/02/19 08:24:41;;;;;;;26.20;13.90;;;;;;;7.09;90.48;100559.63;111075;1212;98961;-71
2024/02/19 08:27:07;;;;;;;23.70;13.60;;;;;;;7.12;90.51;100556.34;110903;1211;139171;-72
2024/02/19 08:29:32;;;;;;;31.60;15.20;;;;;;;7.15;90.64;100554.80;111067;1208;98971;-71
2024/02/19 08:31:59;;;;;;;30.30;15.70;;;;;;;7.18;90.65;100555.27;110930;1209;141667;-71
2024/02/19 08:34:25;;;;;;;22.90;13.30;;;;;;;7.19;90.76;100555.39;111002;1208;107981;-71
2024/02/19 08:36:51;;;;;;;24.60;14.70;;;;;;;7.21;90.79;100558.19;111060;1206;99012;-71
2024/02/19 08:39:16;;;;;;;28.60;16.10;;;;;;;7.22;90.81;100555.85;110945;1210;138810;-71
2024/02/19 08:41:41;;;;;;;28.50;13.70;;;;;;;7.23;90.94;100554.40;110955;1210;98980;-71
2024/02/19 08:44:07;;;;;;;24.40;13.50;;;;;;;7.25;90.93;100553.09;110940;1211;139591;-71
2024/02/19 08:46:32;;;;;;;22.50;13.00;;;;;;;7.27;91.02;100547.16;111106;1209;98942;-71
2024/02/19 08:48:57;;;;;;;25.30;13.30;;;;;;;7.28;91.09;100551.92;110891;1210;139445;-71
2024/02/19 08:51:23;;;;;;;24.40;13.90;;;;;;;7.28;91.11;100549.42;111068;1208;98946;-71
2024/02/19 08:53:48;;;;;;;23.80;13.90;;;;;;;7.30;91.10;100546.70;111080;1210;99585;-71
2024/02/19 08:56:15;;;;;;;29.30;14.30;;;;;;;7.31;91.26;100544.17;110923;1210;139075;-72
2024/02/19 08:58:41;;;;;;;29.50;13.70;;;;;;;7.34;91.30;100544.98;111088;1208;99016;-72
2024/02/19 09:01:10;;;;;;;27.00;14.70;;;;;;;7.35;91.44;100540.50;110856;1210;139665;-72
2024/02/19 09:03:39;;;;;;;22.50;12.90;;;;;;;7.37;91.42;100540.08;111039;1211;98852;-72
2024/02/19 09:06:07;;;;;;;29.70;15.90;;;;;;;7.38;91.52;100541.30;111047;1210;99128;-72
2024/02/19 09:08:33;;;;;;;23.50;13.70;;;;;;;7.39;91.62;100537.87;110969;1207;139273;-71
2024/02/19 09:10:59;;;;;;;23.80;14.30;;;;;;;7.41;91.60;100539.61;111154;1211;99530;-71
2024/02/19 09:13:24;;;;;;;22.40;13.00;;;;;;;7.42;91.66;100539.36;110964;1210;139637;-72
2024/02/19 09:15:49;;;;;;;28.00;13.10;;;;;;;7.44;91.71;100532.39;110999;1211;99040;-72
2024/02/19 09:18:14;;;;;;;26.00;13.20;;;;;;;7.46;91.75;100530.73;111017;1209;99022;-71
2024/02/19 09:20:40;;;;;;;20.00;12.10;;;;;;;7.48;91.80;100527.10;110916;1212;139126;-72
2024/02/19 09:23:05;;;;;;;17.70;11.10;;;;;;;7.49;91.87;100526.69;110906;1211;100369;-72
2024/02/19 09:25:31;;;;;;;19.60;12.10;;;;;;;7.51;91.86;100527.39;110929;1213;141182;-72
2024/02/19 09:27:57;;;;;;;19.00;11.70;;;;;;;7.52;91.98;100524.67;110990;1211;99789;-72
2024/02/19 09:30:24;;;;;;;18.40;11.50;;;;;;;7.54;92.13;100523.19;110974;1210;98960;-72
2024/02/19 09:32:49;;;;;;;20.90;12.20;;;;;;;7.58;92.16;100524.66;110904;1210;139141;-71
2024/02/19 09:35:16;;;;;;;17.50;10.80;;;;;;;7.60;92.24;100523.33;111120;1210;98950;-72
2024/02/19 09:37:41;;;;;;;24.80;12.90;;;;;;;7.64;92.32;100523.56;110760;1210;139949;-72
2024/02/19 09:40:08;;;;;;;17.20;10.60;;;;;;;7.66;92.32;100527.40;111012;1205;103296;-72
2024/02/19 09:42:35;;;;;;;19.80;11.30;;;;;;;7.67;92.33;100524.52;111141;1210;98923;-72
2024/02/19 09:45:01;;;;;;;18.80;10.60;;;;;;;7.68;92.41;100521.63;110959;1207;139314;-72
2024/02/19 09:47:27;;;;;;;19.30;12.20;;;;;;;7.69;92.56;100516.99;111011;1223;100474;-72
2024/02/19 09:49:52;;;;;;;20.50;10.30;;;;;;;7.70;92.61;100521.23;110840;1211;139710;-72
2024/02/19 09:52:25;;;;;;;14.70;9.20;;;;;;;7.70;92.61;100520.87;111052;1206;98949;-72
2024/02/19 09:54:51;;;;;;;15.20;8.20;;;;;;;7.70;92.61;100521.40;110917;1210;112864;-72
2024/02/19 09:57:18;;;;;;;11.40;6.90;;;;;;;7.68;92.67;100520.20;110963;1211;139398;-72
2024/02/19 09:59:45;;;;;;;13.10;7.10;;;;;;;7.68;92.86;100521.65;110990;1210;98945;-72
2024/02/19 10:02:11;;;;;;;11.50;7.40;;;;;;;7.70;92.81;100519.10;110923;1208;139650;-72
2024/02/19 10:04:37;;;;;;;12.70;7.80;;;;;;;7.70;92.89;100522.09;111101;1215;99002;-72
2024/02/19 10:07:03;;;;;;;12.50;6.90;;;;;;;7.71;92.98;100522.95;110890;1211;139687;-72
2024/02/19 10:09:29;;;;;;;12.40;6.00;;;;;;;7.70;92.99;100520.67;111002;1210;99832;-72
2024/02/19 10:11:57;;;;;;;9.30;6.00;;;;;;;7.69;93.08;100521.96;110974;1206;99826;-72
2024/02/19 10:14:23;;;;;;;10.40;6.50;;;;;;;7.67;93.11;100520.97;111075;1207;139348;-72
2024/02/19 10:16:52;;;;;;;8.70;5.20;;;;;;;7.68;93.36;100522.02;110974;1205;99391;-71
2024/02/19 10:19:17;;;;;;;9.50;5.30;;;;;;;7.69;93.24;100531.76;110572;1212;144916;-72
2024/02/19 10:21:48;;;;;;;8.80;5.10;;;;;;;7.69;93.42;100527.64;110806;1211;103321;-72
2024/02/19 10:24:23;;;;;;;7.30;5.50;;;;;;;7.72;93.48;100531.10;111133;1211;99113;-72
2024/02/19 10:26:48;;;;;;;7.80;4.70;;;;;;;7.74;93.49;100535.86;110834;1211;138748;-72
2024/02/19 10:29:14;;;;;;;6.40;4.30;;;;;;;7.73;93.53;100544.94;111066;1210;99042;-72
2024/02/19 10:31:41;;;;;;;8.10;4.60;;;;;;;7.71;93.57;100532.38;110926;1207;139385;-72
2024/02/19 10:34:09;;;;;;;4.40;3.40;;;;;;;7.71;93.63;100540.05;111013;1212;99603;-72
2024/02/19 10:36:35;;;;;;;4.60;3.70;;;;;;;7.68;93.66;100539.26;111306;1209;112161;-71
2024/02/19 10:39:02;;;;;;;5.10;3.60;;;;;;;7.64;93.72;100540.81;111011;1217;138821;-71
2024/02/19 10:41:27;;;;;;;5.40;3.50;;;;;;;7.61;93.74;100539.48;111067;1209;100591;-71
2024/02/19 10:43:53;;;;;;;5.80;3.50;;;;;;;7.61;93.93;100537.52;110933;1219;139293;-72
2024/02/19 10:46:21;;;;;;;4.70;3.00;;;;;;;7.63;94.03;100542.09;111091;1210;112821;-71
2024/02/19 10:48:49;;;;;;;3.30;2.40;;;;;;;7.62;94.02;100544.44;111167;1207;99660;-71
2024/02/19 10:51:17;;;;;;;4.20;2.40;;;;;;;7.62;94.06;100543.20;110927;1213;138577;-71
2024/02/19 10:53:46;;;;;;;3.30;2.20;;;;;;;7.62;94.21;100546.91;111076;1212;99604;-71
2024/02/19 10:56:17;;;;;;;1.90;1.40;;;;;;;7.60;94.03;100557.64;110971;1211;139270;-71
2024/02/19 10:58:55;;;;;;;4.20;1.30;;;;;;;7.49;93.86;100572.95;110982;1211;113396;-70
2024/02/19 11:01:22;;;;;;;0.60;0.60;;;;;;;7.30;93.76;100569.98;110899;1211;139364;-70